sensor_id;sensor_type;location;lat;lon;timestamp;pressure;altitude;pressure_sealevel;temperature;humidity
32320;BME280;19080;51.750;5.888;2023-08-21T00:00:54;102056.38;;;20.18;100.00
32320;BME280;19080;51.750;5.888;2023-08-21T00:03:22;102033.97;;;20.09;100.00
32320;BME280;19080;51.750;5.888;2023-08-21T00:05:48;102034.84;;;20.10;100.00
32320;BME280;19080;51.750;5.888;2023-08-21T00:08:15;102035.78;;;20.03;100.00
32320;BME280;19080;51.750;5.888;2023-08-21T00:10:41;102046.56;;;20.04;100.00
32320;BME280;19080;51.750;5.888;2023-08-21T00:13:08;101960.56;;;19.56;100.00
32320;BME280;19080;51.750;5.888;2023-08-21T00:15:37;102034.03;;;19.94;100.00
32320;BME280;19080;51.750;5.888;2023-08-21T00:18:06;102038.53;;;19.91;100.00
32320;BME280;19080;51.750;5.888;2023-08-21T00:20:32;102044.84;;;19.87;100.00
32320;BME280;19080;51.750;5.888;2023-08-21T00:22:59;102065.47;;;19.97;100.00
32320;BME280;19080;51.750;5.888;2023-08-21T00:25:25;102031.41;;;19.77;100.00
32320;BME280;19080;51.750;5.888;2023-08-21T00:27:52;102073.59;;;19.86;100.00
32320;BME280;19080;51.750;5.888;2023-08-21T00:30:19;102059.25;;;19.75;100.00
32320;BME280;19080;51.750;5.888;2023-08-21T00:32:46;102054.81;;;19.62;100.00
32320;BME280;19080;51.750;5.888;2023-08-21T00:35:13;102035.97;;;19.43;100.00
32320;BME280;19080;51.750;5.888;2023-08-21T00:37:39;102065.59;;;19.46;100.00
32320;BME280;19080;51.750;5.888;2023-08-21T00:40:06;102062.91;;;19.28;100.00
32320;BME280;19080;51.750;5.888;2023-08-21T00:42:33;102073.69;;;19.22;100.00
32320;BME280;19080;51.750;5.888;2023-08-21T00:45:00;102071.00;;;19.13;100.00
32320;BME280;19080;51.750;5.888;2023-08-21T00:47:27;102006.47;;;18.69;100.00
32320;BME280;19080;51.750;5.888;2023-08-21T00:49:53;102066.56;;;19.00;100.00
32320;BME280;19080;51.750;5.888;2023-08-21T00:52:20;102064.75;;;18.99;100.00
32320;BME280;19080;51.750;5.888;2023-08-21T00:54:47;102050.41;;;18.97;100.00
32320;BME280;19080;51.750;5.888;2023-08-21T00:57:14;102054.91;;;19.02;100.00
32320;BME280;19080;51.750;5.888;2023-08-21T00:59:40;102037.84;;;18.90;100.00
32320;BME280;19080;51.750;5.888;2023-08-21T01:02:07;101978.63;;;18.53;100.00
32320;BME280;19080;51.750;5.888;2023-08-21T01:04:34;102041.44;;;18.87;100.00
32320;BME280;19080;51.750;5.888;2023-08-21T01:07:00;102061.16;;;18.88;100.00
32320;BME280;19080;51.750;5.888;2023-08-21T01:09:31;101961.56;;;18.28;100.00
32320;BME280;19080;51.750;5.888;2023-08-21T01:12:14;102031.53;;;18.60;100.00
32320;BME280;19080;51.750;5.888;2023-08-21T01:14:59;102060.25;;;18.73;100.00
32320;BME280;19080;51.750;5.888;2023-08-21T01:17:30;102044.13;;;18.63;100.00
32320;BME280;19080;51.750;5.888;2023-08-21T01:19:58;102055.72;;;18.60;100.00
32320;BME280;19080;51.750;5.888;2023-08-21T01:22:35;102029.69;;;18.41;100.00
32320;BME280;19080;51.750;5.888;2023-08-21T01:25:04;102053.00;;;18.48;100.00
32320;BME280;19080;51.750;5.888;2023-08-21T01:27:32;101964.19;;;17.96;100.00
32320;BME280;19080;51.750;5.888;2023-08-21T01:30:00;101972.28;;;18.01;100.00
32320;BME280;19080;51.750;5.888;2023-08-21T01:35:22;102060.25;;;18.69;100.00
32320;BME280;19080;51.750;5.888;2023-08-21T01:37:51;102038.75;;;18.73;100.00
32320;BME280;19080;51.750;5.888;2023-08-21T01:40:23;102010.94;;;18.74;100.00
32320;BME280;19080;51.750;5.888;2023-08-21T01:42:52;102034.25;;;19.03;100.00
32320;BME280;19080;51.750;5.888;2023-08-21T01:45:18;102045.88;;;19.23;100.00
32320;BME280;19080;51.750;5.888;2023-08-21T01:47:45;102052.13;;;19.37;100.00
32320;BME280;19080;51.750;5.888;2023-08-21T01:50:11;102053.03;;;19.41;100.00
32320;BME280;19080;51.750;5.888;2023-08-21T01:52:38;102044.97;;;19.36;100.00
32320;BME280;19080;51.750;5.888;2023-08-21T01:55:05;102051.25;;;19.37;100.00
32320;BME280;19080;51.750;5.888;2023-08-21T01:57:34;102037.78;;;19.32;100.00
32320;BME280;19080;51.750;5.888;2023-08-21T02:00:01;101968.78;;;18.87;100.00
32320;BME280;19080;51.750;5.888;2023-08-21T02:02:39;102048.53;;;19.35;100.00
32320;BME280;19080;51.750;5.888;2023-08-21T02:05:06;102040.47;;;19.35;100.00
32320;BME280;19080;51.750;5.888;2023-08-21T02:07:33;102051.22;;;19.44;100.00
32320;BME280;19080;51.750;5.888;2023-08-21T02:10:00;102053.00;;;19.47;100.00
32320;BME280;19080;51.750;5.888;2023-08-21T02:12:27;102027.00;;;19.35;100.00
32320;BME280;19080;51.750;5.888;2023-08-21T02:14:53;102050.31;;;19.48;100.00
32320;BME280;19080;51.750;5.888;2023-08-21T02:17:20;102018.94;;;19.28;100.00
32320;BME280;19080;51.750;5.888;2023-08-21T02:19:46;102048.53;;;19.35;100.00
32320;BME280;19080;51.750;5.888;2023-08-21T02:22:13;102042.28;;;19.26;100.00
32320;BME280;19080;51.750;5.888;2023-08-21T02:24:39;102050.34;;;19.30;100.00
32320;BME280;19080;51.750;5.888;2023-08-21T02:27:06;102024.34;;;19.17;100.00
32320;BME280;19080;51.750;5.888;2023-08-21T02:29:33;102050.34;;;19.30;100.00
32320;BME280;19080;51.750;5.888;2023-08-21T02:32:02;102055.75;;;19.24;100.00
32320;BME280;19080;51.750;5.888;2023-08-21T02:34:28;102057.53;;;19.19;100.00
32320;BME280;19080;51.750;5.888;2023-08-21T02:36:55;102054.84;;;19.19;100.00
32320;BME280;19080;51.750;5.888;2023-08-21T02:39:22;102041.41;;;19.07;100.00
32320;BME280;19080;51.750;5.888;2023-08-21T02:41:48;102043.22;;;18.96;100.00
32320;BME280;19080;51.750;5.888;2023-08-21T02:44:15;102029.78;;;18.73;100.00
32320;BME280;19080;51.750;5.888;2023-08-21T02:46:41;102059.38;;;18.74;100.00
32320;BME280;19080;51.750;5.888;2023-08-21T02:49:08;102054.88;;;18.64;100.00
32320;BME280;19080;51.750;5.888;2023-08-21T02:51:35;102037.78;;;18.47;100.00
32320;BME280;19080;51.750;5.888;2023-08-21T02:54:01;102043.16;;;18.47;100.00
32320;BME280;19080;51.750;5.888;2023-08-21T02:56:28;102055.69;;;18.46;100.00
32320;BME280;19080;51.750;5.888;2023-08-21T02:58:55;102029.69;;;18.35;100.00
32320;BME280;19080;51.750;5.888;2023-08-21T03:01:21;102019.81;;;18.28;100.00
32320;BME280;19080;51.750;5.888;2023-08-21T03:03:48;102037.75;;;18.39;100.00
32320;BME280;19080;51.750;5.888;2023-08-21T03:06:15;101962.41;;;17.95;100.00
32320;BME280;19080;51.750;5.888;2023-08-21T03:08:43;102027.88;;;18.29;100.00
32320;BME280;19080;51.750;5.888;2023-08-21T03:11:10;102045.84;;;18.42;100.00
32320;BME280;19080;51.750;5.888;2023-08-21T03:13:37;102015.34;;;18.31;100.00
32320;BME280;19080;51.750;5.888;2023-08-21T03:16:04;102051.25;;;18.56;100.00
32320;BME280;19080;51.750;5.888;2023-08-21T03:18:31;102046.81;;;18.64;100.00
32320;BME280;19080;51.750;5.888;2023-08-21T03:20:58;102018.97;;;18.58;100.00
32320;BME280;19080;51.750;5.888;2023-08-21T03:23:26;102036.06;;;18.79;100.00
32320;BME280;19080;51.750;5.888;2023-08-21T03:25:52;102045.03;;;18.91;100.00
32320;BME280;19080;51.750;5.888;2023-08-21T03:28:19;102048.63;;;19.06;100.00
32320;BME280;19080;51.750;5.888;2023-08-21T03:30:46;102054.84;;;19.10;100.00
32320;BME280;19080;51.750;5.888;2023-08-21T03:33:12;102073.69;;;19.19;100.00
32320;BME280;19080;51.750;5.888;2023-08-21T03:35:39;101976.88;;;18.75;100.00
32320;BME280;19080;51.750;5.888;2023-08-21T03:38:06;102068.31;;;19.28;100.00
32320;BME280;19080;51.750;5.888;2023-08-21T03:40:40;102054.84;;;19.27;100.00
32320;BME280;19080;51.750;5.888;2023-08-21T03:43:07;102055.75;;;19.27;100.00
32320;BME280;19080;51.750;5.888;2023-08-21T03:45:33;102031.53;;;19.09;100.00
32320;BME280;19080;51.750;5.888;2023-08-21T03:48:03;102058.44;;;19.10;100.00
32320;BME280;19080;51.750;5.888;2023-08-21T03:50:30;102029.78;;;18.83;100.00
32320;BME280;19080;51.750;5.888;2023-08-21T03:52:56;102044.13;;;18.79;100.00
32320;BME280;19080;51.750;5.888;2023-08-21T03:55:23;102043.22;;;18.71;100.00
32320;BME280;19080;51.750;5.888;2023-08-21T03:57:50;102038.69;;;18.60;100.00
32320;BME280;19080;51.750;5.888;2023-08-21T04:00:16;102056.63;;;18.59;100.00
32320;BME280;19080;51.750;5.888;2023-08-21T04:02:43;102022.50;;;18.31;100.00
32320;BME280;19080;51.750;5.888;2023-08-21T04:05:10;102044.91;;;18.33;100.00
32320;BME280;19080;51.750;5.888;2023-08-21T04:07:37;102038.63;;;18.28;100.00
32320;BME280;19080;51.750;5.888;2023-08-21T04:10:05;101937.25;;;17.67;100.00
32320;BME280;19080;51.750;5.888;2023-08-21T04:12:31;101937.25;;;17.66;100.00
32320;BME280;19080;51.750;5.888;2023-08-21T04:14:58;102055.63;;;18.17;100.00
32320;BME280;19080;51.750;5.888;2023-08-21T04:17:24;101966.72;;;17.61;100.00
32320;BME280;19080;51.750;5.888;2023-08-21T04:19:52;102010.66;;;17.71;100.00
32320;BME280;19080;51.750;5.888;2023-08-21T04:22:19;101885.91;;;16.92;100.00
32320;BME280;19080;51.750;5.888;2023-08-21T04:24:45;102062.66;;;17.85;100.00
32320;BME280;19080;51.750;5.888;2023-08-21T04:27:12;102059.03;;;17.77;100.00
32320;BME280;19080;51.750;5.888;2023-08-21T04:29:39;102050.94;;;17.68;100.00
32320;BME280;19080;51.750;5.888;2023-08-21T04:32:06;102059.88;;;17.68;100.00
32320;BME280;19080;51.750;5.888;2023-08-21T04:34:33;102066.16;;;17.69;100.00
32320;BME280;19080;51.750;5.888;2023-08-21T04:37:00;102060.69;;;17.60;100.00
32320;BME280;19080;51.750;5.888;2023-08-21T04:39:27;102054.38;;;17.53;100.00
32320;BME280;19080;51.750;5.888;2023-08-21T04:41:54;102037.28;;;17.36;100.00
32320;BME280;19080;51.750;5.888;2023-08-21T04:44:21;101984.34;;;17.06;100.00
32320;BME280;19080;51.750;5.888;2023-08-21T04:46:48;102073.19;;;17.51;100.00
32320;BME280;19080;51.750;5.888;2023-08-21T04:49:18;102046.25;;;17.39;100.00
32320;BME280;19080;51.750;5.888;2023-08-21T04:51:45;102065.09;;;17.50;100.00
32320;BME280;19080;51.750;5.888;2023-08-21T04:54:12;102041.75;;;17.37;100.00
32320;BME280;19080;51.750;5.888;2023-08-21T04:56:39;102049.88;;;17.46;100.00
32320;BME280;19080;51.750;5.888;2023-08-21T04:59:08;102079.50;;;17.61;100.00
32320;BME280;19080;51.750;5.888;2023-08-21T05:01:34;102066.06;;;17.60;100.00
32320;BME280;19080;51.750;5.888;2023-08-21T05:04:01;102047.22;;;17.52;100.00
32320;BME280;19080;51.750;5.888;2023-08-21T05:06:29;102068.84;;;17.67;100.00
32320;BME280;19080;51.750;5.888;2023-08-21T05:08:56;102061.69;;;17.74;100.00
32320;BME280;19080;51.750;5.888;2023-08-21T05:11:22;102058.19;;;17.85;100.00
32320;BME280;19080;51.750;5.888;2023-08-21T05:13:49;102053.72;;;17.92;100.00
32320;BME280;19080;51.750;5.888;2023-08-21T05:16:19;102079.78;;;18.13;100.00
32320;BME280;19080;51.750;5.888;2023-08-21T05:18:46;102063.66;;;18.08;100.00
32320;BME280;19080;51.750;5.888;2023-08-21T05:21:12;102089.75;;;18.41;100.00
32320;BME280;19080;51.750;5.888;2023-08-21T05:23:41;102072.72;;;18.45;100.00
32320;BME280;19080;51.750;5.888;2023-08-21T05:26:09;102101.50;;;18.75;100.00
32320;BME280;19080;51.750;5.888;2023-08-21T05:28:35;102089.88;;;18.85;100.00
32320;BME280;19080;51.750;5.888;2023-08-21T05:31:02;102100.63;;;19.10;100.00
32320;BME280;19080;51.750;5.888;2023-08-21T05:33:40;102073.69;;;19.13;100.00
32320;BME280;19080;51.750;5.888;2023-08-21T05:36:07;102091.63;;;19.35;100.00
32320;BME280;19080;51.750;5.888;2023-08-21T05:38:34;102103.28;;;19.48;100.00
32320;BME280;19080;51.750;5.888;2023-08-21T05:41:00;102072.78;;;19.34;100.00
32320;BME280;19080;51.750;5.888;2023-08-21T05:43:27;102094.31;;;19.49;100.00
32320;BME280;19080;51.750;5.888;2023-08-21T05:45:53;102088.94;;;19.52;100.00
32320;BME280;19080;51.750;5.888;2023-08-21T05:48:20;102063.78;;;19.47;100.00
32320;BME280;19080;51.750;5.888;2023-08-21T05:50:52;102061.09;;;19.55;100.00
32320;BME280;19080;51.750;5.888;2023-08-21T05:53:19;102096.03;;;19.93;100.00
32320;BME280;19080;51.750;5.888;2023-08-21T05:55:46;102112.97;;;20.24;100.00
32320;BME280;19080;51.750;5.888;2023-08-21T05:58:12;102107.53;;;20.42;100.00
32320;BME280;19080;51.750;5.888;2023-08-21T06:00:39;102102.94;;;20.61;100.00
32320;BME280;19080;51.750;5.888;2023-08-21T06:03:06;102022.16;;;20.30;100.00
32320;BME280;19080;51.750;5.888;2023-08-21T06:05:52;102121.53;;;20.99;100.00
32320;BME280;19080;51.750;5.888;2023-08-21T06:08:18;102104.41;;;21.01;100.00
32320;BME280;19080;51.750;5.888;2023-08-21T06:10:45;102116.03;;;21.11;100.00
32320;BME280;19080;51.750;5.888;2023-08-21T06:13:16;102116.84;;;21.21;100.00
32320;BME280;19080;51.750;5.888;2023-08-21T06:15:44;102124.03;;;21.28;100.00
32320;BME280;19080;51.750;5.888;2023-08-21T06:18:12;102124.84;;;21.37;100.00
32320;BME280;19080;51.750;5.888;2023-08-21T06:20:39;102118.44;;;21.49;100.00
32320;BME280;19080;51.750;5.888;2023-08-21T06:23:05;102103.06;;;21.56;100.00
32320;BME280;19080;51.750;5.888;2023-08-21T06:25:33;102131.59;;;21.84;100.00
32320;BME280;19080;51.750;5.888;2023-08-21T06:28:00;102106.31;;;21.88;100.00
32320;BME280;19080;51.750;5.888;2023-08-21T06:30:27;102132.94;;;22.25;100.00
32320;BME280;19080;51.750;5.888;2023-08-21T06:32:54;102127.22;;;22.49;100.00
32320;BME280;19080;51.750;5.888;2023-08-21T06:35:23;102145.03;;;22.64;100.00
32320;BME280;19080;51.750;5.888;2023-08-21T06:37:51;102128.69;;;22.71;100.00
32320;BME280;19080;51.750;5.888;2023-08-21T06:40:17;102134.00;;;22.81;100.00
32320;BME280;19080;51.750;5.888;2023-08-21T06:42:46;102141.00;;;22.94;100.00
32320;BME280;19080;51.750;5.888;2023-08-21T06:45:12;102132.00;;;22.92;100.00
32320;BME280;19080;51.750;5.888;2023-08-21T06:47:39;102132.69;;;23.06;100.00
32320;BME280;19080;51.750;5.888;2023-08-21T06:50:07;102130.91;;;23.05;100.00
32320;BME280;19080;51.750;5.888;2023-08-21T06:52:34;102135.28;;;23.14;100.00
32320;BME280;19080;51.750;5.888;2023-08-21T06:55:01;102134.78;;;23.43;100.00
32320;BME280;19080;51.750;5.888;2023-08-21T06:57:28;102126.59;;;23.96;100.00
32320;BME280;19080;51.750;5.888;2023-08-21T06:59:55;102118.13;;;24.53;100.00
32320;BME280;19080;51.750;5.888;2023-08-21T07:02:21;102057.25;;;24.63;100.00
32320;BME280;19080;51.750;5.888;2023-08-21T07:04:48;102124.00;;;25.12;100.00
32320;BME280;19080;51.750;5.888;2023-08-21T07:07:15;102126.19;;;25.34;100.00
32320;BME280;19080;51.750;5.888;2023-08-21T07:09:42;102122.84;;;25.58;97.60
32320;BME280;19080;51.750;5.888;2023-08-21T07:12:09;102039.66;;;25.17;96.25
32320;BME280;19080;51.750;5.888;2023-08-21T07:14:35;102134.22;;;25.74;93.39
32320;BME280;19080;51.750;5.888;2023-08-21T07:17:02;102133.16;;;25.79;95.05
32320;BME280;19080;51.750;5.888;2023-08-21T07:19:29;102115.41;;;25.66;96.81
32320;BME280;19080;51.750;5.888;2023-08-21T07:21:55;102149.66;;;25.73;98.12
32320;BME280;19080;51.750;5.888;2023-08-21T07:24:22;102128.06;;;25.67;100.00
32320;BME280;19080;51.750;5.888;2023-08-21T07:26:48;102120.16;;;25.90;92.95
32320;BME280;19080;51.750;5.888;2023-08-21T07:29:15;102058.63;;;25.52;97.98
32320;BME280;19080;51.750;5.888;2023-08-21T07:31:42;102142.94;;;26.17;97.08
32320;BME280;19080;51.750;5.888;2023-08-21T07:34:08;102076.22;;;26.03;93.42
32320;BME280;19080;51.750;5.888;2023-08-21T07:36:35;102140.13;;;26.51;86.20
32320;BME280;19080;51.750;5.888;2023-08-21T07:39:02;102138.16;;;26.56;87.73
32320;BME280;19080;51.750;5.888;2023-08-21T07:41:29;102140.34;;;26.73;90.31
32320;BME280;19080;51.750;5.888;2023-08-21T07:43:55;102137.72;;;27.28;80.49
32320;BME280;19080;51.750;5.888;2023-08-21T07:46:22;102120.38;;;27.55;73.17
32320;BME280;19080;51.750;5.888;2023-08-21T07:48:50;102144.25;;;28.00;71.41
32320;BME280;19080;51.750;5.888;2023-08-21T07:51:16;102110.38;;;27.80;74.92
32320;BME280;19080;51.750;5.888;2023-08-21T07:53:43;102137.38;;;28.13;74.70
32320;BME280;19080;51.750;5.888;2023-08-21T07:56:10;102137.56;;;28.33;71.42
32320;BME280;19080;51.750;5.888;2023-08-21T07:58:36;102125.28;;;28.20;69.05
32320;BME280;19080;51.750;5.888;2023-08-21T08:01:03;102133.53;;;28.18;67.68
32320;BME280;19080;51.750;5.888;2023-08-21T08:03:31;102144.03;;;28.31;69.41
32320;BME280;19080;51.750;5.888;2023-08-21T08:05:58;102150.13;;;28.37;67.29
32320;BME280;19080;51.750;5.888;2023-08-21T08:08:25;102134.22;;;28.25;66.20
32320;BME280;19080;51.750;5.888;2023-08-21T08:10:51;102105.91;;;28.03;64.37
32320;BME280;19080;51.750;5.888;2023-08-21T08:13:18;102155.59;;;28.61;65.13
32320;BME280;19080;51.750;5.888;2023-08-21T08:15:45;102091.09;;;28.57;60.74
32320;BME280;19080;51.750;5.888;2023-08-21T08:18:12;102152.69;;;28.89;61.45
32320;BME280;19080;51.750;5.888;2023-08-21T08:20:40;102154.75;;;29.05;60.36
32320;BME280;19080;51.750;5.888;2023-08-21T08:23:06;102131.22;;;29.01;61.90
32320;BME280;19080;51.750;5.888;2023-08-21T08:25:33;102131.91;;;29.06;61.11
32320;BME280;19080;51.750;5.888;2023-08-21T08:28:00;102116.91;;;28.71;58.74
32320;BME280;19080;51.750;5.888;2023-08-21T08:30:26;102106.53;;;28.58;61.42
32320;BME280;19080;51.750;5.888;2023-08-21T08:32:53;102122.31;;;28.96;61.37
32320;BME280;19080;51.750;5.888;2023-08-21T08:35:20;102154.31;;;29.58;59.84
32320;BME280;19080;51.750;5.888;2023-08-21T08:37:47;102126.69;;;29.85;57.32
32320;BME280;19080;51.750;5.888;2023-08-21T08:40:13;102140.22;;;30.28;53.94
32320;BME280;19080;51.750;5.888;2023-08-21T08:42:40;102086.97;;;29.95;54.02
32320;BME280;19080;51.750;5.888;2023-08-21T08:45:07;102145.28;;;30.56;53.88
32320;BME280;19080;51.750;5.888;2023-08-21T08:47:35;102149.00;;;30.55;53.75
32320;BME280;19080;51.750;5.888;2023-08-21T08:50:03;102132.69;;;30.52;54.75
32320;BME280;19080;51.750;5.888;2023-08-21T08:52:34;102137.69;;;30.24;54.86
32320;BME280;19080;51.750;5.888;2023-08-21T08:55:02;102142.66;;;30.16;53.75
32320;BME280;19080;51.750;5.888;2023-08-21T08:57:30;102142.38;;;30.40;53.24
32320;BME280;19080;51.750;5.888;2023-08-21T08:59:56;102153.63;;;30.92;53.27
32320;BME280;19080;51.750;5.888;2023-08-21T09:02:24;102143.75;;;31.60;48.76
32320;BME280;19080;51.750;5.888;2023-08-21T09:04:51;102143.88;;;31.40;48.77
32320;BME280;19080;51.750;5.888;2023-08-21T09:07:18;102151.97;;;31.60;47.92
32320;BME280;19080;51.750;5.888;2023-08-21T09:09:49;102144.25;;;31.68;47.68
32320;BME280;19080;51.750;5.888;2023-08-21T09:12:17;102130.91;;;31.61;46.40
32320;BME280;19080;51.750;5.888;2023-08-21T09:14:44;102104.09;;;31.31;47.73
32320;BME280;19080;51.750;5.888;2023-08-21T09:17:11;102130.50;;;31.51;46.95
32320;BME280;19080;51.750;5.888;2023-08-21T09:19:38;102139.72;;;31.85;46.50
32320;BME280;19080;51.750;5.888;2023-08-21T09:22:13;102143.19;;;32.23;45.93
32320;BME280;19080;51.750;5.888;2023-08-21T09:24:41;102138.75;;;32.69;46.07
32320;BME280;19080;51.750;5.888;2023-08-21T09:27:25;102120.25;;;33.34;44.44
32320;BME280;19080;51.750;5.888;2023-08-21T09:29:52;102142.09;;;33.83;42.32
32320;BME280;19080;51.750;5.888;2023-08-21T09:32:19;102131.38;;;33.62;41.64
32320;BME280;19080;51.750;5.888;2023-08-21T09:34:46;102133.72;;;33.54;40.98
32320;BME280;19080;51.750;5.888;2023-08-21T09:37:12;102131.28;;;33.64;40.37
32320;BME280;19080;51.750;5.888;2023-08-21T09:39:39;102117.94;;;33.26;41.69
32320;BME280;19080;51.750;5.888;2023-08-21T09:42:07;102128.19;;;33.54;42.20
32320;BME280;19080;51.750;5.888;2023-08-21T09:44:40;102077.25;;;33.47;43.30
32320;BME280;19080;51.750;5.888;2023-08-21T09:47:11;102117.78;;;33.89;39.63
32320;BME280;19080;51.750;5.888;2023-08-21T09:49:39;102129.47;;;33.49;40.84
32320;BME280;19080;51.750;5.888;2023-08-21T09:52:07;102130.91;;;33.24;42.70
32320;BME280;19080;51.750;5.888;2023-08-21T09:54:38;102132.09;;;32.73;42.66
32320;BME280;19080;51.750;5.888;2023-08-21T09:57:05;102122.47;;;32.16;43.55
32320;BME280;19080;51.750;5.888;2023-08-21T09:59:31;102133.63;;;31.26;44.95
32320;BME280;19080;51.750;5.888;2023-08-21T10:01:59;102127.84;;;30.78;47.61
32320;BME280;19080;51.750;5.888;2023-08-21T10:04:31;102143.31;;;30.60;49.62
32320;BME280;19080;51.750;5.888;2023-08-21T10:07:00;102134.03;;;30.43;49.31
32320;BME280;19080;51.750;5.888;2023-08-21T10:09:29;102104.50;;;29.91;49.17
32320;BME280;19080;51.750;5.888;2023-08-21T10:11:57;102044.47;;;29.86;49.36
32320;BME280;19080;51.750;5.888;2023-08-21T10:14:24;102118.69;;;30.96;50.46
32320;BME280;19080;51.750;5.888;2023-08-21T10:16:54;102124.84;;;31.54;50.60
32320;BME280;19080;51.750;5.888;2023-08-21T10:19:21;102123.50;;;31.80;48.80
32320;BME280;19080;51.750;5.888;2023-08-21T10:21:48;102106.06;;;32.31;45.20
32320;BME280;19080;51.750;5.888;2023-08-21T10:24:42;102106.44;;;32.57;43.31
32320;BME280;19080;51.750;5.888;2023-08-21T10:27:08;102110.31;;;33.16;43.04
32320;BME280;19080;51.750;5.888;2023-08-21T10:29:35;102107.75;;;33.58;42.22
32320;BME280;19080;51.750;5.888;2023-08-21T10:32:04;102106.81;;;33.74;40.12
32320;BME280;19080;51.750;5.888;2023-08-21T10:34:33;102041.91;;;33.84;39.30
32320;BME280;19080;51.750;5.888;2023-08-21T10:37:11;102106.31;;;34.40;38.87
32320;BME280;19080;51.750;5.888;2023-08-21T10:39:55;102062.97;;;34.56;37.91
32320;BME280;19080;51.750;5.888;2023-08-21T10:42:37;102095.00;;;34.71;38.01
32320;BME280;19080;51.750;5.888;2023-08-21T10:45:12;102046.22;;;34.31;38.71
32320;BME280;19080;51.750;5.888;2023-08-21T10:47:39;102102.41;;;34.71;39.65
32320;BME280;19080;51.750;5.888;2023-08-21T10:50:07;102095.09;;;34.84;37.31
32320;BME280;19080;51.750;5.888;2023-08-21T10:52:39;102057.94;;;34.89;36.59
32320;BME280;19080;51.750;5.888;2023-08-21T10:55:09;102112.59;;;35.51;37.29
32320;BME280;19080;51.750;5.888;2023-08-21T10:57:36;102092.53;;;35.62;36.41
32320;BME280;19080;51.750;5.888;2023-08-21T11:02:36;102117.59;;;35.59;37.55
32320;BME280;19080;51.750;5.888;2023-08-21T11:05:04;102077.94;;;35.60;35.47
32320;BME280;19080;51.750;5.888;2023-08-21T11:07:37;102122.22;;;35.98;36.18
32320;BME280;19080;51.750;5.888;2023-08-21T11:10:09;102067.56;;;35.76;35.90
32320;BME280;19080;51.750;5.888;2023-08-21T11:12:51;102123.19;;;36.22;35.15
32320;BME280;19080;51.750;5.888;2023-08-21T11:15:18;102100.97;;;36.24;34.08
32320;BME280;19080;51.750;5.888;2023-08-21T11:17:54;102112.06;;;36.60;33.70
32320;BME280;19080;51.750;5.888;2023-08-21T11:20:21;102107.91;;;36.42;33.78
32320;BME280;19080;51.750;5.888;2023-08-21T11:22:47;102103.75;;;35.98;35.03
32320;BME280;19080;51.750;5.888;2023-08-21T11:25:15;102098.53;;;36.06;32.57
32320;BME280;19080;51.750;5.888;2023-08-21T11:27:42;102112.00;;;36.49;31.54
32320;BME280;19080;51.750;5.888;2023-08-21T11:30:11;102096.78;;;36.80;32.62
32320;BME280;19080;51.750;5.888;2023-08-21T11:32:38;102084.47;;;36.71;32.87
32320;BME280;19080;51.750;5.888;2023-08-21T11:35:07;102090.72;;;36.62;32.88
32320;BME280;19080;51.750;5.888;2023-08-21T11:37:43;102092.44;;;36.89;33.33
32320;BME280;19080;51.750;5.888;2023-08-21T11:40:12;102101.13;;;36.59;31.63
32320;BME280;19080;51.750;5.888;2023-08-21T11:42:40;102096.09;;;36.40;32.40
32320;BME280;19080;51.750;5.888;2023-08-21T11:45:07;102093.13;;;36.67;33.00
32320;BME280;19080;51.750;5.888;2023-08-21T11:47:36;102103.31;;;37.03;32.42
32320;BME280;19080;51.750;5.888;2023-08-21T11:50:05;102072.13;;;36.64;32.13
32320;BME280;19080;51.750;5.888;2023-08-21T11:52:32;102080.13;;;36.93;32.46
32320;BME280;19080;51.750;5.888;2023-08-21T11:54:59;102096.25;;;36.99;32.43
32320;BME280;19080;51.750;5.888;2023-08-21T11:57:26;102063.97;;;36.50;32.56
32320;BME280;19080;51.750;5.888;2023-08-21T11:59:54;102093.00;;;36.19;32.96
32320;BME280;19080;51.750;5.888;2023-08-21T12:07:20;102079.97;;;36.34;33.10
32320;BME280;19080;51.750;5.888;2023-08-21T12:09:47;102084.25;;;36.87;33.46
32320;BME280;19080;51.750;5.888;2023-08-21T12:12:17;102081.06;;;37.63;33.35
32320;BME280;19080;51.750;5.888;2023-08-21T12:14:43;102076.00;;;38.03;32.21
32320;BME280;19080;51.750;5.888;2023-08-21T12:17:10;102074.19;;;37.80;32.17
32320;BME280;19080;51.750;5.888;2023-08-21T12:19:37;102079.03;;;38.00;32.29
32320;BME280;19080;51.750;5.888;2023-08-21T12:22:04;102082.81;;;38.22;31.83
32320;BME280;19080;51.750;5.888;2023-08-21T12:24:31;102076.06;;;38.91;30.20
32320;BME280;19080;51.750;5.888;2023-08-21T12:26:58;102042.28;;;39.18;30.68
32320;BME280;19080;51.750;5.888;2023-08-21T12:29:24;102081.63;;;39.55;29.50
32320;BME280;19080;51.750;5.888;2023-08-21T12:31:51;102082.13;;;39.28;30.31
32320;BME280;19080;51.750;5.888;2023-08-21T12:34:18;102067.22;;;39.29;29.90
32320;BME280;19080;51.750;5.888;2023-08-21T12:36:45;102053.34;;;39.92;29.22
32320;BME280;19080;51.750;5.888;2023-08-21T12:39:11;102050.78;;;39.79;29.83
32320;BME280;19080;51.750;5.888;2023-08-21T12:41:38;102061.13;;;38.60;31.72
32320;BME280;19080;51.750;5.888;2023-08-21T12:44:04;102060.31;;;38.58;31.37
32320;BME280;19080;51.750;5.888;2023-08-21T12:46:35;101995.78;;;38.34;30.62
32320;BME280;19080;51.750;5.888;2023-08-21T12:49:02;102058.47;;;39.02;30.62
32320;BME280;19080;51.750;5.888;2023-08-21T12:51:29;102062.34;;;38.79;30.52
32320;BME280;19080;51.750;5.888;2023-08-21T12:53:55;102059.44;;;38.58;30.55
32320;BME280;19080;51.750;5.888;2023-08-21T12:56:22;102058.31;;;38.71;30.41
32320;BME280;19080;51.750;5.888;2023-08-21T12:58:49;102063.53;;;39.08;29.01